sensor_id;sensor_type;location;lat;lon;timestamp;temperature;humidity
48328;DHT22;34136;51.022;7.082;2023-09-19T17:44:39;20.50;99.90
48328;DHT22;34136;51.022;7.082;2023-09-19T17:47:25;20.40;99.90
48328;DHT22;34136;51.022;7.082;2023-09-19T17:50:11;20.30;99.90
48328;DHT22;34136;51.022;7.082;2023-09-19T17:52:57;20.30;99.90
48328;DHT22;34136;51.022;7.082;2023-09-19T17:55:44;20.20;99.90
48328;DHT22;34136;51.022;7.082;2023-09-19T17:58:30;20.10;99.90
48328;DHT22;34136;51.022;7.082;2023-09-19T18:01:18;20.20;99.90
48328;DHT22;34136;51.022;7.082;2023-09-19T18:04:04;20.10;99.90
48328;DHT22;34136;51.022;7.082;2023-09-19T18:06:51;20.20;99.90
48328;DHT22;34136;51.022;7.082;2023-09-19T18:09:37;20.10;99.90
48328;DHT22;34136;51.022;7.082;2023-09-19T18:12:23;20.20;99.90
48328;DHT22;34136;51.022;7.082;2023-09-19T18:15:10;20.20;99.90
48328;DHT22;34136;51.022;7.082;2023-09-19T18:17:56;20.20;99.90
48328;DHT22;34136;51.022;7.082;2023-09-19T18:20:43;20.10;99.90
48328;DHT22;34136;51.022;7.082;2023-09-19T18:23:30;20.00;99.90
48328;DHT22;34136;51.022;7.082;2023-09-19T18:26:16;20.00;99.90
48328;DHT22;34136;51.022;7.082;2023-09-19T18:29:02;20.00;99.90
48328;DHT22;34136;51.022;7.082;2023-09-19T18:31:49;20.10;99.90
48328;DHT22;34136;51.022;7.082;2023-09-19T18:34:35;20.10;99.90
48328;DHT22;34136;51.022;7.082;2023-09-19T18:37:21;20.00;99.90
48328;DHT22;34136;51.022;7.082;2023-09-19T18:40:08;19.90;99.90
48328;DHT22;34136;51.022;7.082;2023-09-19T18:42:55;20.00;99.90
48328;DHT22;34136;51.022;7.082;2023-09-19T18:45:42;20.00;99.90
48328;DHT22;34136;51.022;7.082;2023-09-19T18:48:28;20.00;99.90
48328;DHT22;34136;51.022;7.082;2023-09-19T18:51:15;20.00;99.90
48328;DHT22;34136;51.022;7.082;2023-09-19T18:54:02;19.90;99.90
48328;DHT22;34136;51.022;7.082;2023-09-19T18:56:51;19.80;99.90
48328;DHT22;34136;51.022;7.082;2023-09-19T18:59:37;19.80;99.90
48328;DHT22;34136;51.022;7.082;2023-09-19T19:02:23;19.70;99.90
48328;DHT22;34136;51.022;7.082;2023-09-19T19:05:09;19.70;99.90
48328;DHT22;34136;51.022;7.082;2023-09-19T19:07:56;19.60;99.90
48328;DHT22;34136;51.022;7.082;2023-09-19T19:10:42;19.60;99.90
48328;DHT22;34136;51.022;7.082;2023-09-19T19:13:28;19.60;99.90
48328;DHT22;34136;51.022;7.082;2023-09-19T19:16:14;19.60;99.90
48328;DHT22;34136;51.022;7.082;2023-09-19T19:19:01;19.60;99.90
48328;DHT22;34136;51.022;7.082;2023-09-19T19:21:47;19.60;99.90
48328;DHT22;34136;51.022;7.082;2023-09-19T19:24:33;19.60;99.90
48328;DHT22;34136;51.022;7.082;2023-09-19T19:27:20;19.70;99.90
48328;DHT22;34136;51.022;7.082;2023-09-19T19:30:06;19.70;99.90
48328;DHT22;34136;51.022;7.082;2023-09-19T19:32:53;19.70;99.90
48328;DHT22;34136;51.022;7.082;2023-09-19T19:35:39;19.70;99.90
48328;DHT22;34136;51.022;7.082;2023-09-19T19:38:25;19.70;99.90
48328;DHT22;34136;51.022;7.082;2023-09-19T19:41:11;19.70;99.90
48328;DHT22;34136;51.022;7.082;2023-09-19T19:43:57;19.70;99.90
48328;DHT22;34136;51.022;7.082;2023-09-19T19:46:44;19.60;99.90
48328;DHT22;34136;51.022;7.082;2023-09-19T19:49:30;19.60;99.90
48328;DHT22;34136;51.022;7.082;2023-09-19T19:52:17;19.60;99.90
48328;DHT22;34136;51.022;7.082;2023-09-19T19:55:03;19.60;99.90
48328;DHT22;34136;51.022;7.082;2023-09-19T19:57:49;19.60;99.90
48328;DHT22;34136;51.022;7.082;2023-09-19T20:00:35;19.70;99.90
48328;DHT22;34136;51.022;7.082;2023-09-19T20:03:22;19.60;99.90
48328;DHT22;34136;51.022;7.082;2023-09-19T20:06:08;19.50;99.90
48328;DHT22;34136;51.022;7.082;2023-09-19T20:08:55;19.50;99.90
48328;DHT22;34136;51.022;7.082;2023-09-19T20:11:41;19.60;99.90
48328;DHT22;34136;51.022;7.082;2023-09-19T20:14:27;19.60;99.90
48328;DHT22;34136;51.022;7.082;2023-09-19T20:17:13;19.50;99.90
48328;DHT22;34136;51.022;7.082;2023-09-19T20:19:59;19.50;99.90
48328;DHT22;34136;51.022;7.082;2023-09-19T20:22:46;19.40;99.90
48328;DHT22;34136;51.022;7.082;2023-09-19T20:25:36;19.50;99.90
48328;DHT22;34136;51.022;7.082;2023-09-19T20:28:22;19.50;99.90
48328;DHT22;34136;51.022;7.082;2023-09-19T20:31:09;19.50;99.90
48328;DHT22;34136;51.022;7.082;2023-09-19T20:33:59;19.40;99.90
48328;DHT22;34136;51.022;7.082;2023-09-19T20:36:46;19.40;99.90
48328;DHT22;34136;51.022;7.082;2023-09-19T20:39:32;19.50;99.90
48328;DHT22;34136;51.022;7.082;2023-09-19T20:42:18;19.30;99.90
48328;DHT22;34136;51.022;7.082;2023-09-19T20:45:06;19.40;99.90
48328;DHT22;34136;51.022;7.082;2023-09-19T20:47:52;19.40;99.90
48328;DHT22;34136;51.022;7.082;2023-09-19T20:50:39;19.30;99.90
48328;DHT22;34136;51.022;7.082;2023-09-19T20:53:26;19.30;99.90
48328;DHT22;34136;51.022;7.082;2023-09-19T20:56:13;19.40;99.90
48328;DHT22;34136;51.022;7.082;2023-09-19T20:58:59;19.40;99.90
48328;DHT22;34136;51.022;7.082;2023-09-19T21:01:46;19.50;99.90
48328;DHT22;34136;51.022;7.082;2023-09-19T21:04:32;19.60;99.90
48328;DHT22;34136;51.022;7.082;2023-09-19T21:07:18;19.60;99.90
48328;DHT22;34136;51.022;7.082;2023-09-19T21:10:05;19.50;99.90
48328;DHT22;34136;51.022;7.082;2023-09-19T21:12:51;19.40;99.90
48328;DHT22;34136;51.022;7.082;2023-09-19T21:15:41;19.40;99.90
48328;DHT22;34136;51.022;7.082;2023-09-19T21:18:28;19.40;99.90
48328;DHT22;34136;51.022;7.082;2023-09-19T21:21:14;19.30;99.90
48328;DHT22;34136;51.022;7.082;2023-09-19T21:24:00;19.30;99.90
48328;DHT22;34136;51.022;7.082;2023-09-19T21:26:47;19.30;99.90
48328;DHT22;34136;51.022;7.082;2023-09-19T21:29:36;19.40;99.90
48328;DHT22;34136;51.022;7.082;2023-09-19T21:32:22;19.30;99.90
48328;DHT22;34136;51.022;7.082;2023-09-19T21:35:08;19.20;99.90
48328;DHT22;34136;51.022;7.082;2023-09-19T21:37:54;19.30;99.90
48328;DHT22;34136;51.022;7.082;2023-09-19T21:40:41;19.20;99.90
48328;DHT22;34136;51.022;7.082;2023-09-19T21:43:27;19.20;99.90
48328;DHT22;34136;51.022;7.082;2023-09-19T21:46:13;19.20;99.90
48328;DHT22;34136;51.022;7.082;2023-09-19T21:48:59;19.20;99.90
48328;DHT22;34136;51.022;7.082;2023-09-19T21:51:45;19.10;99.90
48328;DHT22;34136;51.022;7.082;2023-09-19T21:54:31;19.10;99.90
48328;DHT22;34136;51.022;7.082;2023-09-19T21:57:17;19.20;99.90
48328;DHT22;34136;51.022;7.082;2023-09-19T22:00:04;19.20;99.90
48328;DHT22;34136;51.022;7.082;2023-09-19T22:02:57;19.30;99.90
48328;DHT22;34136;51.022;7.082;2023-09-19T22:05:43;19.20;99.90
48328;DHT22;34136;51.022;7.082;2023-09-19T22:08:29;19.20;99.90
48328;DHT22;34136;51.022;7.082;2023-09-19T22:11:19;19.20;99.90
48328;DHT22;34136;51.022;7.082;2023-09-19T22:14:05;19.20;99.90
48328;DHT22;34136;51.022;7.082;2023-09-19T22:16:52;19.20;99.90
48328;DHT22;34136;51.022;7.082;2023-09-19T22:19:38;19.20;99.90
48328;DHT22;34136;51.022;7.082;2023-09-19T22:22:24;19.20;99.90
48328;DHT22;34136;51.022;7.082;2023-09-19T22:25:10;19.30;99.90
48328;DHT22;34136;51.022;7.082;2023-09-19T22:27:56;19.30;99.90
48328;DHT22;34136;51.022;7.082;2023-09-19T22:30:42;19.30;99.90
48328;DHT22;34136;51.022;7.082;2023-09-19T22:33:28;19.20;99.90
48328;DHT22;34136;51.022;7.082;2023-09-19T22:36:14;19.20;99.90
48328;DHT22;34136;51.022;7.082;2023-09-19T22:39:00;19.20;99.90
48328;DHT22;34136;51.022;7.082;2023-09-19T22:41:47;19.10;99.90
48328;DHT22;34136;51.022;7.082;2023-09-19T22:44:33;19.10;99.90
48328;DHT22;34136;51.022;7.082;2023-09-19T22:47:19;19.10;99.90
48328;DHT22;34136;51.022;7.082;2023-09-19T22:50:06;19.00;99.90
48328;DHT22;34136;51.022;7.082;2023-09-19T22:52:52;19.00;99.90
48328;DHT22;34136;51.022;7.082;2023-09-19T22:55:38;19.00;99.90
48328;DHT22;34136;51.022;7.082;2023-09-19T22:58:24;19.00;99.90
48328;DHT22;34136;51.022;7.082;2023-09-19T23:01:15;18.90;99.90
48328;DHT22;34136;51.022;7.082;2023-09-19T23:04:03;18.80;99.90
48328;DHT22;34136;51.022;7.082;2023-09-19T23:06:51;18.80;99.90
48328;DHT22;34136;51.022;7.082;2023-09-19T23:09:37;18.80;99.90
48328;DHT22;34136;51.022;7.082;2023-09-19T23:12:23;18.70;99.90
48328;DHT22;34136;51.022;7.082;2023-09-19T23:15:09;18.80;99.90
48328;DHT22;34136;51.022;7.082;2023-09-19T23:17:55;18.70;99.90
48328;DHT22;34136;51.022;7.082;2023-09-19T23:20:41;18.60;99.90
48328;DHT22;34136;51.022;7.082;2023-09-19T23:23:27;18.60;99.90
48328;DHT22;34136;51.022;7.082;2023-09-19T23:26:14;18.50;99.90
48328;DHT22;34136;51.022;7.082;2023-09-19T23:29:00;18.50;99.90
48328;DHT22;34136;51.022;7.082;2023-09-19T23:31:46;18.60;99.90
48328;DHT22;34136;51.022;7.082;2023-09-19T23:34:32;18.50;99.90
48328;DHT22;34136;51.022;7.082;2023-09-19T23:37:18;18.50;99.90
48328;DHT22;34136;51.022;7.082;2023-09-19T23:40:04;18.50;99.90
48328;DHT22;34136;51.022;7.082;2023-09-19T23:42:50;18.50;99.90
48328;DHT22;34136;51.022;7.082;2023-09-19T23:45:39;18.50;99.90
48328;DHT22;34136;51.022;7.082;2023-09-19T23:48:25;18.40;99.90
48328;DHT22;34136;51.022;7.082;2023-09-19T23:51:12;18.50;99.90
48328;DHT22;34136;51.022;7.082;2023-09-19T23:53:58;18.50;99.90
48328;DHT22;34136;51.022;7.082;2023-09-19T23:56:44;18.50;99.90
48328;DHT22;34136;51.022;7.082;2023-09-19T23:59:30;18.50;99.90
